RKSO

Osan Air Base Airport

South Korea
METAR RKSO 210058Z 00000KT 7SM BKN040 M05/M10 A3022 RMK AO2A SLP238 T10471099
Observed Flight Rules
Jan-21 @ 00:58 UTC (57 minutes ago) Visual Flight Rules
Visibility Clouds
11,265 meters
  • Broken at 4,000' AGL
Temperatures Readings
Current -5°C / 23°F
Dewpoint -10°C / 14°F
Humidity 68%
Altimeter 30.22" Hg
Pressure 1023.8 hPa
Elevation 12
METAR RKSO 210058Z 00000KT 7SM BKN040 M05/M10 A3022 RMK AO2A SLP238 T10471099
Observed Flight Rules
Jan-21 @ 00:58 UTC
(57 minutes ago)
VFR
Clouds
  • Broken at 4,000' AGL
Temperature Dewpoint
-5°C / 23°F -10°C / 14°F
Humidity Altimeter Pressure
68% 30.22" Hg 1023.8 hPa